SAS71A ENBO-ENGM
Flight info
| Callsign | SAS71A |
|---|---|
| Flight time | N/A |
| Altitude | 36000 |
| Route | DISMU DCT SOMUB DCT BELGU |
| Aircraft | B737/M-SDE2E3FGHIRWXY/LB1 |
Departure
| Time | 2026-05-05 09:35 |
|---|---|
| Airport | Bodø Airport (ENBO) |
Arrival
| Time | N/A |
|---|---|
| Airport | Oslo-Gardermoen International Airport (ENGM) |
| Time | Latitude | Longitude | Altitude | Speed | Heading |
|---|---|---|---|---|---|
| 2026-05-05 09:14 | 67.27175 | 14.36619 | 46 ft | 0 kts | 68° |
| 2026-05-05 09:28 | 67.27175 | 14.36618 | 43 ft | 2 kts | 68° |
| 2026-05-05 09:28 | 67.27166 | 14.36559 | 45 ft | 4 kts | 68° |
| 2026-05-05 09:28 | 67.27156 | 14.36494 | 46 ft | 4 kts | 72° |
| 2026-05-05 09:29 | 67.27151 | 14.36439 | 46 ft | 1 kts | 83° |
| 2026-05-05 09:32 | 67.27148 | 14.36447 | 46 ft | 2 kts | 118° |
| 2026-05-05 09:32 | 67.27103 | 14.36475 | 45 ft | 12 kts | 166° |
| 2026-05-05 09:32 | 67.27064 | 14.36616 | 44 ft | 10 kts | 90° |
| 2026-05-05 09:32 | 67.27071 | 14.36798 | 46 ft | 14 kts | 83° |
| 2026-05-05 09:33 | 67.27096 | 14.37107 | 50 ft | 18 kts | 75° |
| 2026-05-05 09:33 | 67.27121 | 14.37426 | 53 ft | 18 kts | 79° |
| 2026-05-05 09:33 | 67.27138 | 14.37718 | 52 ft | 16 kts | 74° |
| 2026-05-05 09:33 | 67.27160 | 14.37987 | 56 ft | 15 kts | 86° |
| 2026-05-05 09:34 | 67.27159 | 14.38252 | 54 ft | 14 kts | 91° |
| 2026-05-05 09:34 | 67.27092 | 14.38393 | 53 ft | 14 kts | 193° |
| 2026-05-05 09:34 | 67.27050 | 14.38080 | 52 ft | 41 kts | 262° |
| 2026-05-05 09:34 | 67.26934 | 14.36670 | 40 ft | 117 kts | 257° |
| 2026-05-05 09:35 | 67.26735 | 14.34184 | 237 ft | 155 kts | 256° |
| 2026-05-05 09:35 | 67.26366 | 14.28439 | 1832 ft | 164 kts | 257° |
| 2026-05-05 09:35 | 67.26090 | 14.25365 | 2371 ft | 193 kts | 241° |
| 2026-05-05 09:36 | 67.25051 | 14.22822 | 2755 ft | 221 kts | 216° |
| 2026-05-05 09:36 | 67.23737 | 14.20444 | 3312 ft | 245 kts | 218° |
| 2026-05-05 09:36 | 67.22320 | 14.17784 | 4176 ft | 255 kts | 218° |
| 2026-05-05 09:36 | 67.20695 | 14.15928 | 5260 ft | 261 kts | 193° |
| 2026-05-05 09:37 | 67.18906 | 14.15261 | 6302 ft | 265 kts | 190° |
| 2026-05-05 09:37 | 67.17056 | 14.14661 | 7252 ft | 271 kts | 190° |
| 2026-05-05 09:37 | 67.15145 | 14.14034 | 8194 ft | 276 kts | 190° |
| 2026-05-05 09:37 | 67.13222 | 14.13381 | 9115 ft | 281 kts | 190° |
| 2026-05-05 09:38 | 67.11290 | 14.12700 | 9954 ft | 289 kts | 190° |
| 2026-05-05 09:38 | 67.09187 | 14.11937 | 10313 ft | 316 kts | 189° |
| 2026-05-05 09:38 | 67.06951 | 14.11111 | 10912 ft | 330 kts | 189° |
| 2026-05-05 09:38 | 67.04680 | 14.10271 | 11738 ft | 336 kts | 189° |
| 2026-05-05 09:39 | 67.02322 | 14.09392 | 12640 ft | 340 kts | 188° |
| 2026-05-05 09:39 | 66.99972 | 14.08513 | 13540 ft | 343 kts | 188° |
| 2026-05-05 09:39 | 66.97603 | 14.07625 | 14443 ft | 345 kts | 188° |
| 2026-05-05 09:39 | 66.95215 | 14.06729 | 15279 ft | 349 kts | 188° |
| 2026-05-05 09:40 | 66.92798 | 14.05822 | 16122 ft | 352 kts | 188° |
| 2026-05-05 09:40 | 66.90372 | 14.04914 | 16945 ft | 355 kts | 188° |
| 2026-05-05 09:40 | 66.87948 | 14.04007 | 17724 ft | 358 kts | 188° |
| 2026-05-05 09:40 | 66.85474 | 14.03080 | 18517 ft | 361 kts | 188° |
| 2026-05-05 09:41 | 66.82982 | 14.02150 | 19283 ft | 364 kts | 188° |
| 2026-05-05 09:41 | 66.80467 | 14.01212 | 20001 ft | 368 kts | 188° |
| 2026-05-05 09:41 | 66.77922 | 14.00263 | 20707 ft | 372 kts | 188° |
| 2026-05-05 09:41 | 66.75351 | 13.99307 | 21390 ft | 375 kts | 188° |
| 2026-05-05 09:42 | 66.72755 | 13.98346 | 22051 ft | 379 kts | 188° |
| 2026-05-05 09:42 | 66.70131 | 13.97376 | 22707 ft | 382 kts | 188° |
| 2026-05-05 09:42 | 66.67491 | 13.96402 | 23359 ft | 385 kts | 188° |
| 2026-05-05 09:42 | 66.64831 | 13.95421 | 23990 ft | 388 kts | 188° |
| 2026-05-05 09:43 | 66.62153 | 13.94437 | 24561 ft | 391 kts | 188° |
| 2026-05-05 09:43 | 66.59434 | 13.93440 | 25073 ft | 397 kts | 189° |
| 2026-05-05 09:43 | 66.56685 | 13.92436 | 25555 ft | 402 kts | 189° |
| 2026-05-05 09:43 | 66.53904 | 13.91413 | 26072 ft | 405 kts | 190° |
| 2026-05-05 09:44 | 66.51147 | 13.89889 | 26567 ft | 408 kts | 196° |
| 2026-05-05 09:44 | 66.48406 | 13.87897 | 27052 ft | 412 kts | 198° |
| 2026-05-05 09:44 | 66.45654 | 13.85781 | 27504 ft | 415 kts | 198° |
| 2026-05-05 09:44 | 66.42883 | 13.83629 | 27942 ft | 419 kts | 198° |
| 2026-05-05 09:45 | 66.40092 | 13.81479 | 28357 ft | 422 kts | 198° |
| 2026-05-05 09:45 | 66.37265 | 13.79329 | 28763 ft | 426 kts | 198° |
| 2026-05-05 09:45 | 66.34420 | 13.77193 | 29178 ft | 429 kts | 198° |
| 2026-05-05 09:45 | 66.31551 | 13.75062 | 29559 ft | 432 kts | 198° |
| 2026-05-05 09:46 | 66.28655 | 13.72926 | 29941 ft | 435 kts | 198° |
| 2026-05-05 09:46 | 66.26729 | 13.71512 | 30176 ft | 437 kts | 198° |
| 2026-05-05 09:46 | 66.22807 | 13.68643 | 30609 ft | 442 kts | 198° |
| 2026-05-05 09:46 | 66.20845 | 13.67212 | 30823 ft | 444 kts | 198° |
| 2026-05-05 09:47 | 66.17873 | 13.65049 | 31119 ft | 447 kts | 198° |
| 2026-05-05 09:47 | 66.14874 | 13.62871 | 31416 ft | 450 kts | 198° |
| 2026-05-05 09:47 | 66.11870 | 13.60694 | 31771 ft | 451 kts | 198° |
| 2026-05-05 09:47 | 66.08858 | 13.58517 | 32190 ft | 450 kts | 198° |
| 2026-05-05 09:48 | 66.05850 | 13.56348 | 32581 ft | 450 kts | 198° |
| 2026-05-05 09:48 | 66.02839 | 13.54182 | 32902 ft | 452 kts | 198° |
| 2026-05-05 09:48 | 65.99823 | 13.52016 | 33233 ft | 452 kts | 198° |
| 2026-05-05 09:48 | 65.96803 | 13.49852 | 33640 ft | 451 kts | 198° |
| 2026-05-05 09:49 | 65.93794 | 13.47704 | 34060 ft | 450 kts | 198° |
| 2026-05-05 09:49 | 65.90789 | 13.45564 | 34391 ft | 450 kts | 198° |
| 2026-05-05 09:49 | 65.87780 | 13.43425 | 34670 ft | 451 kts | 198° |
| 2026-05-05 09:49 | 65.84767 | 13.41289 | 34978 ft | 451 kts | 198° |
| 2026-05-05 09:50 | 65.81758 | 13.39163 | 35345 ft | 449 kts | 198° |
| 2026-05-05 09:50 | 65.78756 | 13.37045 | 35673 ft | 449 kts | 198° |
| 2026-05-05 09:50 | 65.75758 | 13.34934 | 35961 ft | 449 kts | 198° |
| 2026-05-05 09:50 | 65.72760 | 13.32829 | 36257 ft | 448 kts | 198° |
| 2026-05-05 09:51 | 65.69764 | 13.30729 | 36520 ft | 449 kts | 198° |